world map with FRO marked

FRO - Airport

This information may not be accurate or current and is not valid for navigation or flight planning. No warranty of fitness for any purpose is made or implied.

flag of Norway

Donate via PayPal

Additional information is available on the NEW Great Circle Mapper

Location
City:  Florų, Sogn og Fjordane, Norway
ICAO / IATA:ENFL / FRO

Details
Type:Airport (Aerodrome, Airfield)
Latitude:61°35'01"N (61.583611)
Longitude:5°01'29"E (5.024722)
Datum:WGS 1984
Elevation:37 ft (11 m)
Runways:1
Longest:3934 × 98 ft (1199 × 30 m)

Time
Timezone:UTC+1 (DST+4)
Local Time:

Weather
METAR:ENFL  041350Z 12013KT 9999 FEW035 SCT060 04/M02 Q1005

Related Locations
Nearby:
Farthest:NZTB: 11387 mi / 18326 km
Terra Nova Bay [Mario Zucchelli Station], AQ

Find:

   beyond  
but within

Other Information
Maps:
Sources:

  


 


Great Circle Mapper   Great Circle Mapper
Great Circle Mapper FAQ   Great Circle Mapper FAQ
  Karl's Home Page
KLS²   KLS² Home
   GC on Facebook
Airlines of the World   Airlines of the World
Donate via PayPal


Copyright © 2004-2019, Karl L. Swartz. All rights reserved.
All trademarks mentioned herein belong to their respective owners.

Please see credits for attribution and copyright information.

Karl Swartz <karl@kls2.com>
  Powered by FreeBSD
Valid HTML 4.01!
Labeled with ICRA
hCard Microformat
Geo Microformat